AirNav   Air Wisconsin Up To $57,000 Bonus
 
 572 users online  

13NY Health Sciences Center Unv Hospital Heliport
Stony Brook, New York, USA

GOING TO STONY BROOK?


FAA INFORMATION EFFECTIVE 07 NOVEMBER 2019

Location

FAA Identifier: 13NY
Lat/Long: 40-54-35.6100N 073-06-52.7800W
40-54.593500N 073-06.879667W
40.9098917,-73.1146611
(estimated)
Elevation: 190 ft. / 58 m (estimated)
Variation: 14W (1985)
From city: 2 miles SE of STONY BROOK, NY
Time zone: UTC -5 (UTC -4 during Daylight Saving Time)
Zip code: 11733

Heliport Operations

Heliport use: Private use, PHONE-REQ MEDICAL USE.
Control tower: no
ARTCC: NEW YORK CENTER
FSS: NEW YORK FLIGHT SERVICE STATION
Attendance: CONTINUOUS
Wind indicator: yes
Segmented circle: no
Taxiway lights: LIGHTING AVAILABLE UPON REQUEST CALL 631-444-1911.

Heliport Communications

WX ASOS at ISP (7 nm S): 128.45 (631-471-0131)
WX ASOS at HWV (12 nm SE): 119.625 (631-399-7095)
WX ASOS at BDR (15 nm N): 119.15 (203-381-9453)
WX ASOS at FRG (17 nm SW): PHONE 631-752-8129
  • MULTICOM 122.85

Nearby radio navigation aids

VOR radial/distance  VOR name  Freq  Var
DPKr062/11.1DEER PARK VOR/DME117.7012W
CCCr278/14.4CALVERTON VOR/DME117.2013W
BDRr190/15.1BRIDGEPORT VOR/DME108.8012W
CMKr148/30.6CARMEL VOR/DME116.6012W
MADr231/30.9MADISON VOR/DME110.4013W
JFKr073/34.2KENNEDY VOR/DME115.9012W
LGAr090/35.0LA GUARDIA VOR/DME113.1012W
HTOr282/36.2HAMPTON VORTAC113.6013W
CRIr074/39.7CANARSIE VOR/DME112.3011W

 
NDB name  Hdg/Dist  Freq  Var  ID
LOKKS032/11.436614WIS .. ...
BABYLON055/18.827514WBBN -... -... -.

Heliport Services

Runway Information

Helipad H1

Dimensions: 60 x 60 ft. / 18 x 18 m
Surface: concrete
Latitude: 40-54.593500N
Longitude: 073-06.879667W
Elevation: 190.0 ft.
Traffic pattern: leftleft
Obstructions: 235 ft. bldg, lighted, 70 ft. from runway
235' BLDG PARALLEL TO ONE OF THE HELICOPTER APPROACHES.

Heliport Ownership and Management from official FAA records

Ownership: Privately-owned
Owner: STATE UNV OF NY, STONYBROOK
STATE UNV OF NY, STONYBROOK
STONY BROOK, NY 11790
Phone (631) 689-8333
Manager: ERIC NIEGELBERG
EMERGENCY DEPT., UNV HOSP
STONY BROOK, NY 11794
Phone (631) 444-1911

Additional Remarks

A30A APPROACHING AIRCRAFT SHOULD CONTACT HOSPITAL ON UNICOM 122.85 MHZ.
FOR CD CTC NEW YORK APCH AT 516-683-2449.

Instrument Procedures

There are no published instrument procedures at 13NY.

Some nearby airports with instrument procedures:

KISP - Long Island Mac Arthur Airport (7 nm S)
KHWV - Brookhaven Airport (12 nm SE)
KBDR - Igor I Sikorsky Memorial Airport (15 nm N)
KFRG - Republic Airport (17 nm SW)
KFOK - Francis S Gabreski Airport (22 nm E)
 
Loc | Ops | Rwys | IFR | FBO | Links
Com | Nav | Svcs | Stats | Notes
Area around 13NY (Health Sciences Center Unv Hospital Heliport)
 
Road maps at: MapQuest Bing Google
 
Aerial photo
No photo
 
Sectional chart

 
Airport distance calculator
Flying to Health Sciences Center Unv Hospital Heliport? Find the distance to fly.

From to 13NY

Sunrise and sunset
Times for 12-Nov-2019
 Local
(UTC-5)
 Zulu
(UTC)
Morning civil twilight06:0811:08
Sunrise06:3711:37
Sunset16:3621:36
Evening civil twilight17:0522:05

Current date and time
Zulu (UTC)  12-Nov-2019 12:15:18
Local (UTC-5)  12-Nov-2019 07:15:18
 
METAR
KISP 
7nm S 
121156Z 24008KT 10SM FEW080 OVC130 13/08 A2970 RMK AO2 SLP057 T01280083 10144 20128 58006
KHWV 
13nm SE 
121156Z AUTO 23009KT 10SM CLR 14/07 A2970 RMK AO2 SLP057 T01390072 10150 20139 58006
KBDR 
15nm N 
121152Z 23010KT 10SM CLR 14/08 A2968 RMK AO2 SLP051 T01390083 10139 20128 56008
KFRG 
17nm SW 
121153Z 23009KT 10SM SCT110 13/07 A2971 RMK AO2 SLP062 T01330067 10139 20133 55003
TAF
KISP 
7nm S 
121139Z 1212/1312 23011KT P6SM SCT040 OVC150 FM121400 27013G20KT 5SM -RA BR SCT025 OVC040 FM121600 30016G24KT 4SM -RA BR OVC025 FM121700 31017G24KT 4SM -RA BR OVC015 FM121900 32018G25KT 3SM -SHRASN BKN020 FM122100 32019G29KT P6SM SCT040
KBDR 
15nm N 
121139Z 1212/1312 22010KT P6SM SCT040 OVC150 FM121300 27012G19KT 5SM -RA BR SCT025 OVC040 FM121500 30014G22KT 4SM -RA BR OVC025 FM121700 31015G23KT 3SM -RASN BR OVC015 FM121900 32016G24KT 2SM -SHSN BKN020 FM122100 31017G26KT P6SM SCT040
NOTAMs
Click for the latest NOTAMs
NOTAMs are issued by the DoD/FAA and will open in a separate window not controlled by AirNav.

 

 
 

Would you like to see your business listed on this page?

 If your business provides an interesting product or service to pilots, flight crews, aircraft, or users of the Health Sciences Center Unv Hospital Heliport, you should consider listing it here.  To start the listing process, click on the button below
 
Add a business
 

Other Pages about Health Sciences Center Unv Hospital Heliport

Update a link
 
Copyright © AirNav, LLC. All rights reserved. Privacy Policy  Contact